createdAt,value
2022-12-16T00:01:07.766Z,89.00
2022-12-16T00:03:36.651Z,89.45
2022-12-16T00:06:04.894Z,88.60
2022-12-16T00:08:36.177Z,88.33
2022-12-16T00:11:03.650Z,88.84
2022-12-16T00:13:33.487Z,88.47
2022-12-16T00:16:05.131Z,88.09
2022-12-16T00:18:32.599Z,87.70
2022-12-16T00:21:00.007Z,87.62
2022-12-16T00:23:28.298Z,87.70
2022-12-16T00:25:55.783Z,87.75
2022-12-16T00:28:23.283Z,88.13
2022-12-16T00:30:53.337Z,88.31
2022-12-16T00:33:23.858Z,89.11
2022-12-16T00:35:51.785Z,88.00
2022-12-16T00:38:19.414Z,88.54
2022-12-16T00:40:47.464Z,88.36
2022-12-16T00:43:15.120Z,88.38
2022-12-16T00:45:42.530Z,87.32
2022-12-16T00:48:11.355Z,87.06
2022-12-16T00:50:38.943Z,86.51
2022-12-16T00:53:06.405Z,87.58
2022-12-16T00:55:33.868Z,87.61
2022-12-16T00:58:01.306Z,88.49
2022-12-16T01:00:28.726Z,89.67
2022-12-16T01:02:56.214Z,89.45
2022-12-16T01:05:26.897Z,89.33
2022-12-16T01:07:55.216Z,89.80
2022-12-16T01:10:22.695Z,90.62
2022-12-16T01:12:50.126Z,90.68
2022-12-16T01:15:18.256Z,90.21
2022-12-16T01:17:45.704Z,90.61
2022-12-16T01:20:14.169Z,90.56
2022-12-16T01:22:42.973Z,90.71
2022-12-16T01:25:12.798Z,91.63
2022-12-16T01:27:40.270Z,92.66
2022-12-16T01:30:08.979Z,91.88
2022-12-16T01:32:36.508Z,92.95
2022-12-16T01:35:10.694Z,93.17
2022-12-16T01:37:47.404Z,93.59
2022-12-16T01:40:17.974Z,93.67
2022-12-16T01:42:45.889Z,94.33
2022-12-16T01:45:28.923Z,94.46
2022-12-16T01:47:58.131Z,94.48
2022-12-16T01:50:26.630Z,94.22
2022-12-16T01:52:58.293Z,93.06
2022-12-16T01:55:28.655Z,93.64
2022-12-16T01:57:57.295Z,93.82
2022-12-16T02:00:24.743Z,94.88
2022-12-16T02:02:52.509Z,94.90
2022-12-16T02:05:22.821Z,94.82
2022-12-16T02:07:55.399Z,95.40
2022-12-16T02:10:28.665Z,94.96
2022-12-16T02:12:59.607Z,94.59
2022-12-16T02:15:35.252Z,94.56
2022-12-16T02:18:06.916Z,95.21
2022-12-16T02:20:51.376Z,93.64
2022-12-16T02:23:38.173Z,93.42
2022-12-16T02:26:36.748Z,94.73
2022-12-16T02:29:19.821Z,94.76
2022-12-16T02:31:53.972Z,93.92
2022-12-16T02:34:30.881Z,93.50
2022-12-16T02:37:03.840Z,94.27
2022-12-16T02:39:36.728Z,94.07
2022-12-16T02:42:08.773Z,93.80
2022-12-16T02:44:41.361Z,93.07
2022-12-16T02:47:10.075Z,92.65
2022-12-16T02:49:47.355Z,91.59
2022-12-16T02:52:15.366Z,92.32
2022-12-16T02:54:43.938Z,91.73
2022-12-16T02:57:18.244Z,91.33
2022-12-16T02:59:50.940Z,91.17
2022-12-16T03:02:22.080Z,90.59
2022-12-16T03:04:52.233Z,89.51
2022-12-16T03:07:21.434Z,90.23
2022-12-16T03:09:50.071Z,89.39
2022-12-16T03:12:19.048Z,88.28
2022-12-16T03:14:49.253Z,88.64
2022-12-16T03:17:17.992Z,87.45
2022-12-16T03:19:50.727Z,88.37
2022-12-16T03:22:21.132Z,88.95
2022-12-16T03:24:49.342Z,88.83
2022-12-16T03:27:19.373Z,88.58
2022-12-16T03:29:51.431Z,88.82
2022-12-16T03:32:23.454Z,89.67
2022-12-16T03:34:53.947Z,89.34
2022-12-16T03:37:23.269Z,89.19
2022-12-16T03:39:52.436Z,89.35
2022-12-16T03:42:19.846Z,89.72
2022-12-16T03:44:48.497Z,89.76
2022-12-16T03:47:21.448Z,88.22
2022-12-16T03:49:52.317Z,88.35
2022-12-16T03:52:19.748Z,90.10
2022-12-16T03:54:47.181Z,89.83
2022-12-16T03:57:15.661Z,88.72
2022-12-16T03:59:43.262Z,88.80
2022-12-16T04:02:10.862Z,90.01
2022-12-16T04:04:38.410Z,89.99
2022-12-16T04:07:22.100Z,89.01
2022-12-16T04:09:50.209Z,88.02
2022-12-16T04:12:35.114Z,88.40
2022-12-16T04:15:19.877Z,88.85
2022-12-16T04:18:04.845Z,88.50
2022-12-16T04:20:59.227Z,87.62
2022-12-16T04:23:46.938Z,87.78
2022-12-16T04:26:14.589Z,87.52
2022-12-16T04:28:42.163Z,88.07
2022-12-16T04:31:09.812Z,89.06
2022-12-16T04:33:55.152Z,89.07
2022-12-16T04:36:42.211Z,87.97
2022-12-16T04:39:28.258Z,87.23
2022-12-16T04:42:13.578Z,87.33
2022-12-16T04:44:58.793Z,86.70
2022-12-16T04:47:44.067Z,86.54
2022-12-16T04:50:28.865Z,85.70
2022-12-16T04:53:13.817Z,87.10
2022-12-16T04:56:04.134Z,86.97
2022-12-16T04:58:49.930Z,87.17
2022-12-16T05:01:34.887Z,87.02
2022-12-16T05:04:20.245Z,87.17
2022-12-16T05:07:04.953Z,86.48
2022-12-16T05:09:49.790Z,86.07
2022-12-16T05:12:35.646Z,86.78
2022-12-16T05:15:28.866Z,86.54
2022-12-16T05:18:15.985Z,85.75
2022-12-16T05:21:00.897Z,85.75
2022-12-16T05:23:45.662Z,84.76
2022-12-16T05:26:30.538Z,86.05
2022-12-16T05:29:16.732Z,85.77
2022-12-16T05:32:01.427Z,86.11
2022-12-16T05:34:46.177Z,87.43
2022-12-16T05:37:31.056Z,86.26
2022-12-16T05:40:16.025Z,85.53
2022-12-16T05:43:03.343Z,86.96
2022-12-16T05:45:49.538Z,86.60
2022-12-16T05:48:34.333Z,84.98
2022-12-16T05:51:19.011Z,85.23
2022-12-16T05:54:04.000Z,84.78
2022-12-16T05:56:48.682Z,85.56
2022-12-16T05:59:33.669Z,84.48
2022-12-16T06:02:19.691Z,85.78
2022-12-16T06:05:05.001Z,86.51
2022-12-16T06:08:04.258Z,85.83
2022-12-16T06:10:49.247Z,87.47
2022-12-16T06:13:34.409Z,86.36
2022-12-16T06:16:19.516Z,86.83
2022-12-16T06:19:05.992Z,87.17
2022-12-16T06:21:50.888Z,86.67
2022-12-16T06:24:36.005Z,86.69
2022-12-16T06:27:20.834Z,85.42
2022-12-16T06:30:05.656Z,85.65
2022-12-16T06:32:50.548Z,92.97
2022-12-16T06:35:36.712Z,88.86
2022-12-16T06:38:30.211Z,86.82
2022-12-16T06:41:15.136Z,86.39
2022-12-16T06:44:00.077Z,85.89
2022-12-16T06:46:45.043Z,86.34
2022-12-16T06:49:26.427Z,85.96
2022-12-16T06:52:12.659Z,87.06
2022-12-16T06:54:57.545Z,99.35
2022-12-16T06:57:42.320Z,100.00
2022-12-16T07:00:28.202Z,96.80
2022-12-16T07:03:12.988Z,93.33
2022-12-16T07:05:58.006Z,92.00
2022-12-16T07:08:44.144Z,96.10
2022-12-16T07:11:29.093Z,93.38
2022-12-16T07:14:19.234Z,90.75
2022-12-16T07:17:03.943Z,88.52
2022-12-16T07:19:48.861Z,88.25
2022-12-16T07:22:34.103Z,88.30
2022-12-16T07:25:20.137Z,86.59
2022-12-16T07:28:05.168Z,87.62
2022-12-16T07:30:51.648Z,87.14
2022-12-16T07:33:36.795Z,87.78
2022-12-16T07:36:21.870Z,90.15
2022-12-16T07:39:06.819Z,89.61
2022-12-16T07:41:53.314Z,88.27
2022-12-16T07:44:38.404Z,86.40
2022-12-16T07:47:23.302Z,87.51
2022-12-16T07:50:08.057Z,87.03
2022-12-16T07:52:53.476Z,86.76
2022-12-16T07:55:40.584Z,86.26
2022-12-16T07:58:26.839Z,86.76
2022-12-16T08:01:11.728Z,86.99
2022-12-16T08:03:56.899Z,87.65
2022-12-16T08:06:41.982Z,88.59
2022-12-16T08:09:26.803Z,89.05
2022-12-16T08:12:11.701Z,88.98
2022-12-16T08:14:57.811Z,89.21
2022-12-16T08:17:42.719Z,88.76
2022-12-16T08:20:27.972Z,88.89
2022-12-16T08:23:12.826Z,87.06
2022-12-16T08:25:57.782Z,86.16
2022-12-16T08:28:42.703Z,86.65
2022-12-16T08:31:28.830Z,85.99
2022-12-16T08:34:14.184Z,85.79
2022-12-16T08:36:59.017Z,85.83
2022-12-16T08:39:43.893Z,85.53
2022-12-16T08:42:28.528Z,85.57
2022-12-16T08:45:18.566Z,85.50
2022-12-16T08:48:19.259Z,86.43
2022-12-16T08:51:04.038Z,86.03
2022-12-16T08:54:00.436Z,85.21
2022-12-16T08:56:45.247Z,85.79
2022-12-16T08:59:30.035Z,85.59
2022-12-16T09:02:14.854Z,84.55
2022-12-16T09:05:01.126Z,84.73
2022-12-16T09:07:46.661Z,85.22
2022-12-16T09:10:37.605Z,84.84
2022-12-16T09:13:26.088Z,84.84
2022-12-16T09:16:15.722Z,83.39
2022-12-16T09:19:02.571Z,83.64
2022-12-16T09:21:48.670Z,83.58
2022-12-16T09:24:33.587Z,82.68
2022-12-16T09:27:18.432Z,81.08
2022-12-16T09:30:03.242Z,81.20
2022-12-16T09:32:48.175Z,80.20
2022-12-16T09:35:33.035Z,79.73
2022-12-16T09:38:19.248Z,78.91
2022-12-16T09:41:04.047Z,79.32
2022-12-16T09:43:55.642Z,79.24
2022-12-16T09:46:43.987Z,77.75
2022-12-16T09:49:34.818Z,77.53
2022-12-16T09:52:20.760Z,76.40
2022-12-16T09:55:07.252Z,77.42
2022-12-16T09:57:54.257Z,77.89
2022-12-16T10:00:41.346Z,78.15
2022-12-16T10:03:33.956Z,75.65
2022-12-16T10:06:22.107Z,76.75
2022-12-16T10:09:12.005Z,75.74
2022-12-16T10:12:01.990Z,73.80
2022-12-16T10:15:01.796Z,74.63
2022-12-16T10:17:46.605Z,75.66
2022-12-16T10:20:34.921Z,76.03
2022-12-16T10:23:23.722Z,75.32
2022-12-16T10:26:13.157Z,73.42
2022-12-16T10:29:03.426Z,74.58
2022-12-16T10:31:49.311Z,74.02
2022-12-16T10:34:36.998Z,72.76
2022-12-16T10:37:21.064Z,73.53
2022-12-16T10:40:08.783Z,73.55
2022-12-16T10:42:55.619Z,73.94
2022-12-16T10:45:44.138Z,73.01
2022-12-16T10:48:29.601Z,73.79
2022-12-16T10:51:14.984Z,73.83
2022-12-16T10:53:59.779Z,73.99
2022-12-16T10:56:55.702Z,73.16
2022-12-16T10:59:42.609Z,73.75
2022-12-16T11:02:37.800Z,72.61
2022-12-16T11:05:40.038Z,71.94
2022-12-16T11:08:39.974Z,72.15
2022-12-16T11:11:30.492Z,72.26
2022-12-16T11:14:27.530Z,71.82
2022-12-16T11:17:29.251Z,71.59
2022-12-16T11:20:26.308Z,71.11
2022-12-16T11:23:22.071Z,71.31
2022-12-16T11:26:21.140Z,71.03
2022-12-16T11:29:20.035Z,69.69
2022-12-16T11:32:08.428Z,67.37
2022-12-16T11:34:55.315Z,67.86
2022-12-16T11:37:42.838Z,69.33
2022-12-16T11:40:31.042Z,69.52
2022-12-16T11:43:17.208Z,69.38
2022-12-16T11:46:02.821Z,68.86
2022-12-16T11:49:03.404Z,69.45
2022-12-16T11:51:51.347Z,70.89
2022-12-16T11:54:45.247Z,69.31
2022-12-16T11:57:35.695Z,69.35
2022-12-16T12:00:22.288Z,67.68
2022-12-16T12:03:09.267Z,67.84
2022-12-16T12:05:57.098Z,68.54
2022-12-16T12:08:46.130Z,67.98
2022-12-16T12:11:37.073Z,68.37
2022-12-16T12:14:28.507Z,68.04
2022-12-16T12:17:18.395Z,72.39
2022-12-16T12:20:08.601Z,72.53
2022-12-16T12:22:54.663Z,71.17
2022-12-16T12:25:42.461Z,68.45
2022-12-16T12:28:35.153Z,66.71
2022-12-16T12:31:29.487Z,67.58
2022-12-16T12:34:19.488Z,68.25
2022-12-16T12:37:07.865Z,66.88
2022-12-16T12:39:55.656Z,67.79
2022-12-16T12:42:49.607Z,66.05
2022-12-16T12:45:56.102Z,66.30
2022-12-16T12:48:43.401Z,65.04
2022-12-16T12:51:31.429Z,64.82
2022-12-16T12:54:21.370Z,64.48
2022-12-16T12:57:07.538Z,67.77
2022-12-16T13:00:02.225Z,66.64
2022-12-16T13:02:56.321Z,66.76
2022-12-16T13:05:42.874Z,66.01
2022-12-16T13:08:42.876Z,65.19
2022-12-16T13:11:35.016Z,64.78
2022-12-16T13:14:20.591Z,64.96
2022-12-16T13:17:25.464Z,65.23
2022-12-16T13:20:18.220Z,66.27
2022-12-16T13:23:04.203Z,75.19
2022-12-16T13:25:55.942Z,67.17
2022-12-16T13:28:42.528Z,65.32
2022-12-16T13:31:27.757Z,65.33
2022-12-16T13:34:13.486Z,63.66
2022-12-16T13:37:04.373Z,64.36
2022-12-16T13:39:49.444Z,65.64
2022-12-16T13:42:50.554Z,66.09
2022-12-16T13:45:43.577Z,65.42
2022-12-16T13:48:44.043Z,66.06
2022-12-16T13:51:49.766Z,65.76
2022-12-16T13:54:35.884Z,64.80
2022-12-16T13:57:21.858Z,65.14
2022-12-16T14:00:21.728Z,64.81
2022-12-16T14:03:09.310Z,65.80
2022-12-16T14:05:55.782Z,67.02
2022-12-16T14:08:42.185Z,66.26
2022-12-16T14:11:39.657Z,79.37
2022-12-16T14:14:26.923Z,71.33
2022-12-16T14:17:13.948Z,72.54
2022-12-16T14:20:05.453Z,69.02
2022-12-16T14:22:59.957Z,66.59
2022-12-16T14:25:44.930Z,67.38
2022-12-16T14:28:38.141Z,67.91
2022-12-16T14:31:24.153Z,67.14
2022-12-16T14:34:11.991Z,68.61
2022-12-16T14:36:57.904Z,69.20
2022-12-16T14:39:48.870Z,70.94
2022-12-16T14:42:37.165Z,71.12
2022-12-16T14:45:24.133Z,71.61
2022-12-16T14:48:09.123Z,71.00
2022-12-16T14:50:54.232Z,69.58
2022-12-16T14:53:39.970Z,69.89
2022-12-16T14:56:28.832Z,70.74
2022-12-16T14:59:25.256Z,69.85
2022-12-16T15:02:13.971Z,69.82
2022-12-16T15:04:59.313Z,71.04
2022-12-16T15:07:47.878Z,71.25
2022-12-16T15:10:33.840Z,70.18
2022-12-16T15:13:19.066Z,70.82
2022-12-16T15:16:05.824Z,70.40
2022-12-16T15:18:54.095Z,71.98
2022-12-16T15:21:38.781Z,72.79
2022-12-16T15:24:26.051Z,80.50
2022-12-16T15:27:27.358Z,80.50
2022-12-16T15:30:12.369Z,76.55
2022-12-16T15:33:00.529Z,75.47
2022-12-16T15:35:48.446Z,74.68
2022-12-16T15:38:40.486Z,73.29
2022-12-16T15:41:25.828Z,74.08
2022-12-16T15:44:10.622Z,74.01
2022-12-16T15:46:55.832Z,73.99
2022-12-16T15:49:42.971Z,74.05
2022-12-16T15:52:47.835Z,73.13
2022-12-16T15:55:43.836Z,73.93
2022-12-16T15:58:33.247Z,73.79
2022-12-16T16:01:18.860Z,75.10
2022-12-16T16:04:08.697Z,75.24
2022-12-16T16:06:54.385Z,75.67
2022-12-16T16:09:41.637Z,75.39
2022-12-16T16:12:27.448Z,76.36
2022-12-16T16:15:12.214Z,78.31
2022-12-16T16:17:57.087Z,77.88
2022-12-16T16:20:53.428Z,77.10
2022-12-16T16:23:38.216Z,77.41
2022-12-16T16:26:24.549Z,77.00
2022-12-16T16:29:09.752Z,77.11
2022-12-16T16:31:57.158Z,77.87
2022-12-16T16:35:00.541Z,78.66
2022-12-16T16:37:45.572Z,78.87
2022-12-16T16:40:37.810Z,78.28
2022-12-16T16:43:23.862Z,78.66
2022-12-16T16:46:11.947Z,79.46
2022-12-16T16:48:57.159Z,79.60
2022-12-16T16:51:41.936Z,80.29
2022-12-16T16:54:26.862Z,79.27
2022-12-16T16:57:11.697Z,79.85
2022-12-16T16:59:57.904Z,80.88
2022-12-16T17:02:43.462Z,80.75
2022-12-16T17:05:28.821Z,80.13
2022-12-16T17:08:13.787Z,80.91
2022-12-16T17:10:58.597Z,81.14
2022-12-16T17:13:43.383Z,81.53
2022-12-16T17:16:30.205Z,81.78
2022-12-16T17:19:15.199Z,81.80
2022-12-16T17:22:00.279Z,81.65
2022-12-16T17:24:48.400Z,82.45
2022-12-16T17:27:36.541Z,82.65
2022-12-16T17:30:22.379Z,83.26
2022-12-16T17:33:08.414Z,82.58
2022-12-16T17:35:53.206Z,83.28
2022-12-16T17:38:38.091Z,82.68
2022-12-16T17:41:25.698Z,83.13
2022-12-16T17:44:11.337Z,82.54
2022-12-16T17:46:56.569Z,83.55
2022-12-16T17:49:42.912Z,83.19
2022-12-16T17:52:27.890Z,84.22
2022-12-16T17:55:12.704Z,85.21
2022-12-16T17:57:57.613Z,85.18
2022-12-16T18:00:42.698Z,85.30
2022-12-16T18:03:27.760Z,84.83
2022-12-16T18:06:15.815Z,84.70
2022-12-16T18:09:00.847Z,85.20
2022-12-16T18:11:45.589Z,85.18
2022-12-16T18:14:30.668Z,85.17
2022-12-16T18:17:15.523Z,85.67
2022-12-16T18:20:00.341Z,85.48
2022-12-16T18:22:46.538Z,85.39
2022-12-16T18:25:31.518Z,85.24
2022-12-16T18:28:19.324Z,85.61
2022-12-16T18:31:04.407Z,85.79
2022-12-16T18:33:49.462Z,86.42
2022-12-16T18:36:34.206Z,86.49
2022-12-16T18:39:20.231Z,86.26
2022-12-16T18:42:05.522Z,86.55
2022-12-16T18:45:02.385Z,86.86
2022-12-16T18:47:47.156Z,87.13
2022-12-16T18:50:37.532Z,87.05
2022-12-16T18:53:23.786Z,86.65
2022-12-16T18:56:18.769Z,87.21
2022-12-16T18:59:03.818Z,87.76
2022-12-16T19:01:48.702Z,87.32
2022-12-16T19:04:33.518Z,87.10
2022-12-16T19:07:18.428Z,88.04
2022-12-16T19:10:03.162Z,88.04
2022-12-16T19:12:49.134Z,88.35
2022-12-16T19:15:38.055Z,87.35
2022-12-16T19:18:28.550Z,88.97
2022-12-16T19:21:13.324Z,87.51
2022-12-16T19:24:01.463Z,87.15
2022-12-16T19:26:46.347Z,87.70
2022-12-16T19:29:32.352Z,87.83
2022-12-16T19:32:17.231Z,88.38
2022-12-16T19:35:02.591Z,88.51
2022-12-16T19:37:47.407Z,88.58
2022-12-16T19:40:32.308Z,88.85
2022-12-16T19:43:31.508Z,88.84
2022-12-16T19:46:17.638Z,89.14
2022-12-16T19:49:02.804Z,89.43
2022-12-16T19:51:47.693Z,88.23
2022-12-16T19:54:32.595Z,88.42
2022-12-16T19:57:17.844Z,89.51
2022-12-16T20:00:02.715Z,89.23
2022-12-16T20:02:57.861Z,89.93
2022-12-16T20:05:43.173Z,88.40
2022-12-16T20:08:28.209Z,89.17
2022-12-16T20:11:12.939Z,89.88
2022-12-16T20:13:58.005Z,89.56
2022-12-16T20:16:45.860Z,89.54
2022-12-16T20:19:32.021Z,89.37
2022-12-16T20:22:22.268Z,89.82
2022-12-16T20:25:07.248Z,90.11
2022-12-16T20:27:52.087Z,89.87
2022-12-16T20:30:51.748Z,90.56
2022-12-16T20:33:36.888Z,91.18
2022-12-16T20:36:24.029Z,91.07
2022-12-16T20:39:08.959Z,90.68
2022-12-16T20:41:56.182Z,91.24
2022-12-16T20:44:41.620Z,91.89
2022-12-16T20:47:22.977Z,97.31
2022-12-16T20:50:07.808Z,99.98
2022-12-16T20:52:53.791Z,94.49
2022-12-16T20:55:39.045Z,92.54
2022-12-16T20:58:24.426Z,91.56
2022-12-16T21:01:09.678Z,91.39
2022-12-16T21:03:56.184Z,91.38
2022-12-16T21:06:41.690Z,91.05
2022-12-16T21:09:27.726Z,91.32
2022-12-16T21:12:09.108Z,92.32
2022-12-16T21:14:53.237Z,93.44
2022-12-16T21:17:38.443Z,92.66
2022-12-16T21:20:23.944Z,92.73
2022-12-16T21:23:15.738Z,93.45
2022-12-16T21:26:01.948Z,93.36
2022-12-16T21:28:46.794Z,92.72
2022-12-16T21:31:31.799Z,92.42
2022-12-16T21:34:16.564Z,92.54
2022-12-16T21:37:01.425Z,93.58
2022-12-16T21:39:46.256Z,93.76
2022-12-16T21:42:35.504Z,93.32
2022-12-16T21:45:23.372Z,93.28
2022-12-16T21:48:10.605Z,92.63
2022-12-16T21:50:56.551Z,93.39
2022-12-16T21:53:42.103Z,93.38
2022-12-16T21:56:28.231Z,93.61
2022-12-16T21:59:14.257Z,94.07
2022-12-16T22:01:59.198Z,93.79
2022-12-16T22:04:44.552Z,93.81
2022-12-16T22:07:29.483Z,94.32
2022-12-16T22:10:13.518Z,94.43
2022-12-16T22:12:58.541Z,94.77
2022-12-16T22:15:45.312Z,94.12
2022-12-16T22:18:30.151Z,93.66
2022-12-16T22:21:16.055Z,95.22
2022-12-16T22:24:00.812Z,94.13
2022-12-16T22:26:45.705Z,94.12
2022-12-16T22:29:29.714Z,93.71
2022-12-16T22:32:15.861Z,94.71
2022-12-16T22:35:02.248Z,93.55
2022-12-16T22:37:46.910Z,92.61
2022-12-16T22:40:31.646Z,92.93
2022-12-16T22:43:16.493Z,92.94
2022-12-16T22:46:01.993Z,93.20
2022-12-16T22:48:48.505Z,93.68
2022-12-16T22:51:34.297Z,92.97
2022-12-16T22:54:19.614Z,93.08
2022-12-16T22:57:04.911Z,93.41
2022-12-16T22:59:49.770Z,93.01
2022-12-16T23:02:34.615Z,92.42
2022-12-16T23:05:27.136Z,92.38
2022-12-16T23:08:12.495Z,91.97
2022-12-16T23:10:57.279Z,92.16
2022-12-16T23:13:44.017Z,92.29
2022-12-16T23:16:28.774Z,92.75
2022-12-16T23:19:13.625Z,92.53
2022-12-16T23:21:59.838Z,92.67
2022-12-16T23:24:44.787Z,91.58
2022-12-16T23:27:29.458Z,91.82
2022-12-16T23:30:14.274Z,92.86
2022-12-16T23:32:59.048Z,92.81
2022-12-16T23:35:43.838Z,93.28
2022-12-16T23:38:29.938Z,93.28
2022-12-16T23:41:15.271Z,92.23
2022-12-16T23:44:00.177Z,92.86
2022-12-16T23:46:45.488Z,91.35
2022-12-16T23:49:30.671Z,92.33
2022-12-16T23:52:15.981Z,91.63
2022-12-16T23:55:02.284Z,91.29
2022-12-16T23:57:47.434Z,90.74
